createdAt,value
2022-11-21T00:01:25.067Z,4.76
2022-11-21T00:03:52.215Z,4.77
2022-11-21T00:06:20.113Z,4.79
2022-11-21T00:08:47.370Z,4.81
2022-11-21T00:11:14.580Z,4.86
2022-11-21T00:13:42.377Z,4.87
2022-11-21T00:16:15.606Z,4.90
2022-11-21T00:18:44.101Z,4.87
2022-11-21T00:21:15.380Z,4.91
2022-11-21T00:23:44.273Z,4.83
2022-11-21T00:26:12.936Z,4.88
2022-11-21T00:28:40.437Z,4.87
2022-11-21T00:31:07.805Z,4.85
2022-11-21T00:33:36.861Z,4.90
2022-11-21T00:36:08.748Z,4.91
2022-11-21T00:38:36.502Z,4.90
2022-11-21T00:41:03.553Z,4.88
2022-11-21T00:43:30.427Z,4.82
2022-11-21T00:45:58.655Z,4.82
2022-11-21T00:48:25.611Z,4.73
2022-11-21T00:50:52.660Z,4.81
2022-11-21T00:53:19.585Z,4.88
2022-11-21T00:55:46.480Z,4.94
2022-11-21T00:58:13.418Z,5.02
2022-11-21T01:00:40.554Z,5.01
2022-11-21T01:03:07.562Z,4.96
2022-11-21T01:05:34.512Z,4.95
2022-11-21T01:08:01.481Z,4.97
2022-11-21T01:10:28.409Z,4.99
2022-11-21T01:12:55.354Z,5.00
2022-11-21T01:15:22.291Z,4.89
2022-11-21T01:17:49.302Z,4.89
2022-11-21T01:20:16.301Z,4.82
2022-11-21T01:22:43.290Z,4.82
2022-11-21T01:25:10.295Z,4.76
2022-11-21T01:27:37.214Z,4.79
2022-11-21T01:30:04.721Z,4.78
2022-11-21T01:32:31.694Z,4.80
2022-11-21T01:34:58.689Z,4.79
2022-11-21T01:37:25.709Z,4.77
2022-11-21T01:39:52.684Z,4.79
2022-11-21T01:42:19.608Z,4.75
2022-11-21T01:44:51.194Z,4.72
2022-11-21T01:47:18.240Z,4.74
2022-11-21T01:49:47.129Z,4.68
2022-11-21T01:52:29.619Z,4.61
2022-11-21T01:55:08.097Z,4.57
2022-11-21T01:57:48.214Z,4.55
2022-11-21T02:00:21.970Z,4.48
2022-11-21T02:03:00.783Z,4.43
2022-11-21T02:05:31.535Z,4.35
2022-11-21T02:08:09.480Z,4.25
2022-11-21T02:10:40.377Z,4.18
2022-11-21T02:13:07.978Z,4.11
2022-11-21T02:15:34.914Z,4.01
2022-11-21T02:18:01.872Z,4.00
2022-11-21T02:20:29.765Z,4.03
2022-11-21T02:23:26.360Z,3.97
2022-11-21T02:25:54.235Z,4.02
2022-11-21T02:28:23.670Z,3.97
2022-11-21T02:30:50.829Z,3.97
2022-11-21T02:33:17.822Z,3.94
2022-11-21T02:35:44.889Z,3.92
2022-11-21T02:38:21.415Z,3.92
2022-11-21T02:41:18.562Z,3.93
2022-11-21T02:43:51.458Z,3.93
2022-11-21T02:46:18.570Z,3.95
2022-11-21T02:48:46.639Z,4.02
2022-11-21T02:51:13.536Z,4.04
2022-11-21T02:53:40.557Z,4.07
2022-11-21T02:56:07.600Z,4.00
2022-11-21T02:58:34.849Z,4.00
2022-11-21T03:01:01.855Z,3.99
2022-11-21T03:03:28.879Z,4.03
2022-11-21T03:05:56.760Z,3.93
2022-11-21T03:08:23.933Z,3.90
2022-11-21T03:10:50.916Z,3.90
2022-11-21T03:13:17.856Z,3.85
2022-11-21T03:15:44.763Z,3.91
2022-11-21T03:18:11.672Z,3.91
2022-11-21T03:20:38.688Z,3.82
2022-11-21T03:23:05.666Z,3.82
2022-11-21T03:25:32.716Z,3.90
2022-11-21T03:27:59.614Z,3.83
2022-11-21T03:30:27.754Z,3.82
2022-11-21T03:32:58.560Z,3.87
2022-11-21T03:35:25.983Z,3.86
2022-11-21T03:37:53.086Z,3.91
2022-11-21T03:40:20.259Z,3.83
2022-11-21T03:42:47.229Z,3.86
2022-11-21T03:45:14.252Z,3.85
2022-11-21T03:47:41.477Z,3.87
2022-11-21T03:50:08.795Z,3.90
2022-11-21T03:52:35.774Z,3.85
2022-11-21T03:55:02.711Z,3.86
2022-11-21T03:57:29.643Z,3.90
2022-11-21T03:59:56.664Z,3.89
2022-11-21T04:02:23.698Z,3.95
2022-11-21T04:04:50.652Z,3.93
2022-11-21T04:07:17.598Z,3.98
2022-11-21T04:09:44.531Z,3.95
2022-11-21T04:12:11.488Z,3.92
2022-11-21T04:14:38.513Z,3.98
2022-11-21T04:17:05.738Z,4.04
2022-11-21T04:19:32.657Z,4.08
2022-11-21T04:22:02.519Z,4.05
2022-11-21T04:24:29.688Z,4.02
2022-11-21T04:26:56.951Z,4.02
2022-11-21T04:29:24.031Z,4.07
2022-11-21T04:31:50.969Z,4.13
2022-11-21T04:34:17.890Z,4.09
2022-11-21T04:36:44.861Z,4.13
2022-11-21T04:39:11.845Z,4.12
2022-11-21T04:41:38.752Z,4.16
2022-11-21T04:44:05.966Z,4.10
2022-11-21T04:46:32.976Z,4.12
2022-11-21T04:48:59.919Z,4.09
2022-11-21T04:51:26.815Z,4.08
2022-11-21T04:53:53.795Z,4.03
2022-11-21T04:56:20.737Z,3.99
2022-11-21T04:58:47.693Z,4.04
2022-11-21T05:01:14.609Z,4.05
2022-11-21T05:03:41.632Z,4.10
2022-11-21T05:06:08.650Z,4.16
2022-11-21T05:08:35.643Z,4.10
2022-11-21T05:11:20.974Z,4.19
2022-11-21T05:13:47.891Z,4.26
2022-11-21T05:16:14.850Z,4.27
2022-11-21T05:18:41.790Z,4.19
2022-11-21T05:21:08.752Z,4.20
2022-11-21T05:23:35.684Z,4.17
2022-11-21T05:26:02.650Z,4.15
2022-11-21T05:28:29.577Z,4.16
2022-11-21T05:30:56.527Z,4.18
2022-11-21T05:33:23.476Z,4.13
2022-11-21T05:35:50.459Z,4.18
2022-11-21T05:38:17.391Z,4.18
2022-11-21T05:40:44.372Z,4.19
2022-11-21T05:43:31.161Z,4.23
2022-11-21T05:45:58.334Z,4.27
2022-11-21T05:48:25.319Z,4.33
2022-11-21T05:50:52.400Z,4.33
2022-11-21T05:53:20.665Z,4.37
2022-11-21T05:55:47.976Z,4.40
2022-11-21T05:58:15.172Z,4.37
2022-11-21T06:00:42.333Z,4.25
2022-11-21T06:03:30.911Z,4.28
2022-11-21T06:06:10.638Z,4.31
2022-11-21T06:08:47.439Z,4.32
2022-11-21T06:11:16.818Z,4.34
2022-11-21T06:13:44.491Z,4.32
2022-11-21T06:16:17.138Z,4.34
2022-11-21T06:18:47.590Z,4.33
2022-11-21T06:21:18.403Z,4.39
2022-11-21T06:23:46.367Z,4.43
2022-11-21T06:26:16.539Z,4.38
2022-11-21T06:28:45.582Z,4.46
2022-11-21T06:31:16.638Z,4.53
2022-11-21T06:33:44.635Z,4.52
2022-11-21T06:36:14.871Z,4.54
2022-11-21T06:38:43.485Z,4.53
2022-11-21T06:41:17.101Z,4.48
2022-11-21T06:43:44.784Z,4.52
2022-11-21T06:46:13.631Z,4.59
2022-11-21T06:48:41.653Z,4.58
2022-11-21T06:51:20.043Z,4.50
2022-11-21T06:53:48.648Z,4.52
2022-11-21T06:56:15.988Z,4.50
2022-11-21T06:58:42.943Z,4.51
2022-11-21T07:01:10.879Z,4.54
2022-11-21T07:03:37.889Z,4.50
2022-11-21T07:06:05.816Z,4.46
2022-11-21T07:08:36.027Z,4.45
2022-11-21T07:11:25.269Z,4.50
2022-11-21T07:13:53.244Z,4.53
2022-11-21T07:16:20.181Z,4.53
2022-11-21T07:18:47.120Z,4.62
2022-11-21T07:21:14.532Z,4.62
2022-11-21T07:23:41.573Z,4.58
2022-11-21T07:26:10.719Z,4.56
2022-11-21T07:28:38.075Z,4.46
2022-11-21T07:31:11.726Z,4.43
2022-11-21T07:33:40.139Z,4.45
2022-11-21T07:36:07.289Z,4.74
2022-11-21T07:38:34.417Z,5.03
2022-11-21T07:41:01.437Z,5.40
2022-11-21T07:43:28.324Z,5.34
2022-11-21T07:45:56.462Z,5.53
2022-11-21T07:48:23.419Z,5.27
2022-11-21T07:50:50.510Z,5.13
2022-11-21T07:53:17.454Z,5.07
2022-11-21T07:55:44.509Z,5.09
2022-11-21T07:58:15.723Z,5.07
2022-11-21T08:00:43.307Z,5.18
2022-11-21T08:03:12.381Z,5.14
2022-11-21T08:05:43.429Z,5.23
2022-11-21T08:08:12.870Z,5.25
2022-11-21T08:10:45.461Z,5.47
2022-11-21T08:13:13.788Z,5.47
2022-11-21T08:15:41.377Z,5.53
2022-11-21T08:18:19.175Z,5.44
2022-11-21T08:20:46.589Z,5.31
2022-11-21T08:23:13.831Z,5.27
2022-11-21T08:25:42.376Z,5.27
2022-11-21T08:28:11.851Z,5.31
2022-11-21T08:30:40.686Z,5.41
2022-11-21T08:33:08.432Z,5.24
2022-11-21T08:35:38.262Z,5.23
2022-11-21T08:38:05.744Z,5.60
2022-11-21T08:40:33.496Z,6.16
2022-11-21T08:43:07.677Z,6.17
2022-11-21T08:45:37.069Z,6.50
2022-11-21T08:48:12.542Z,6.40
2022-11-21T08:50:39.702Z,6.60
2022-11-21T08:53:06.643Z,6.35
2022-11-21T08:55:33.737Z,6.56
2022-11-21T08:58:00.723Z,6.90
2022-11-21T09:00:28.237Z,6.94
2022-11-21T09:02:55.579Z,6.91
2022-11-21T09:05:22.917Z,6.76
2022-11-21T09:07:57.403Z,6.37
2022-11-21T09:10:26.013Z,6.55
2022-11-21T09:12:53.518Z,6.64
2022-11-21T09:15:39.751Z,6.73
2022-11-21T09:18:08.105Z,6.48
2022-11-21T09:20:43.366Z,6.45
2022-11-21T09:23:13.070Z,6.39
2022-11-21T09:25:40.520Z,6.24
2022-11-21T09:28:09.369Z,6.58
2022-11-21T09:30:37.435Z,6.74
2022-11-21T09:33:06.957Z,7.11
2022-11-21T09:35:34.531Z,7.61
2022-11-21T09:38:02.626Z,7.87
2022-11-21T09:40:31.124Z,7.99
2022-11-21T09:43:17.011Z,7.67
2022-11-21T09:45:50.025Z,7.79
2022-11-21T09:48:32.904Z,7.88
2022-11-21T09:51:05.124Z,8.04
2022-11-21T09:53:35.442Z,7.88
2022-11-21T09:56:11.518Z,7.87
2022-11-21T09:58:51.593Z,7.91
2022-11-21T10:01:19.087Z,8.22
2022-11-21T10:03:52.170Z,8.15
2022-11-21T10:06:43.887Z,7.98
2022-11-21T10:09:35.992Z,8.12
2022-11-21T10:12:39.837Z,7.97
2022-11-21T10:15:19.268Z,7.85
2022-11-21T10:18:08.328Z,7.84
2022-11-21T10:20:47.685Z,6.78
2022-11-21T10:23:40.119Z,6.88
2022-11-21T10:26:21.083Z,6.54
2022-11-21T10:28:59.610Z,6.72
2022-11-21T10:31:30.970Z,6.74
2022-11-21T10:33:59.850Z,6.94
2022-11-21T10:36:38.879Z,6.95
2022-11-21T10:39:19.027Z,7.38
2022-11-21T10:41:56.783Z,8.14
2022-11-21T10:45:09.406Z,8.24
2022-11-21T10:47:39.942Z,8.49
2022-11-21T10:50:09.808Z,9.43
2022-11-21T10:52:40.547Z,8.62
2022-11-21T10:55:11.083Z,9.47
2022-11-21T10:57:40.686Z,10.78
2022-11-21T11:00:14.122Z,12.06
2022-11-21T11:02:43.203Z,10.55
2022-11-21T11:05:16.725Z,8.78
2022-11-21T11:07:59.319Z,8.58
2022-11-21T11:10:28.133Z,8.09
2022-11-21T11:13:44.399Z,7.98
2022-11-21T11:16:15.283Z,8.46
2022-11-21T11:18:50.954Z,8.66
2022-11-21T11:21:24.775Z,8.75
2022-11-21T11:23:53.894Z,8.68
2022-11-21T11:26:28.009Z,8.48
2022-11-21T11:29:09.599Z,7.98
2022-11-21T11:32:00.428Z,7.59
2022-11-21T11:34:40.328Z,7.39
2022-11-21T11:37:27.442Z,7.17
2022-11-21T11:40:00.297Z,7.21
2022-11-21T11:43:06.169Z,6.94
2022-11-21T11:46:18.724Z,7.33
2022-11-21T11:49:17.332Z,6.89
2022-11-21T11:51:47.032Z,6.09
2022-11-21T11:54:18.793Z,6.31
2022-11-21T11:56:47.182Z,6.10
2022-11-21T11:59:31.605Z,5.91
2022-11-21T12:02:12.176Z,6.37
2022-11-21T12:04:58.847Z,6.21
2022-11-21T12:11:02.858Z,7.14
2022-11-21T12:13:30.947Z,7.54
2022-11-21T12:16:08.537Z,8.29
2022-11-21T12:18:56.294Z,8.03
2022-11-21T12:21:23.989Z,8.47
2022-11-21T12:23:56.345Z,8.76
2022-11-21T12:26:29.829Z,8.98
2022-11-21T12:29:34.866Z,10.04
2022-11-21T12:32:30.375Z,10.02
2022-11-21T12:35:06.501Z,9.89
2022-11-21T12:37:33.811Z,9.48
2022-11-21T12:40:22.385Z,9.99
2022-11-21T12:43:29.244Z,9.48
2022-11-21T12:46:07.979Z,9.63
2022-11-21T12:49:28.982Z,9.45
2022-11-21T12:52:21.357Z,9.00
2022-11-21T12:54:56.558Z,8.48
2022-11-21T12:57:42.806Z,8.40
2022-11-21T13:00:27.159Z,8.07
2022-11-21T13:03:18.592Z,8.11
2022-11-21T13:05:50.135Z,8.03
2022-11-21T13:08:24.687Z,7.83
2022-11-21T13:11:30.178Z,7.99
2022-11-21T13:14:06.893Z,8.50
2022-11-21T13:16:38.011Z,8.83
2022-11-21T13:19:16.840Z,8.59
2022-11-21T13:21:47.928Z,8.43
2022-11-21T13:24:47.556Z,8.82
2022-11-21T13:27:39.209Z,9.54
2022-11-21T13:30:12.526Z,9.67
2022-11-21T13:32:46.129Z,9.63
2022-11-21T13:35:19.379Z,9.14
2022-11-21T13:37:54.107Z,8.65
2022-11-21T13:40:29.857Z,8.36
2022-11-21T13:45:59.927Z,8.20
2022-11-21T13:48:36.554Z,8.23
2022-11-21T13:51:12.407Z,8.13
2022-11-21T13:53:57.590Z,8.20
2022-11-21T13:57:04.501Z,8.47
2022-11-21T13:59:50.788Z,8.53
2022-11-21T14:02:51.221Z,8.40
2022-11-21T14:05:37.221Z,8.35
2022-11-21T14:08:33.998Z,8.11
2022-11-21T14:11:39.311Z,7.97
2022-11-21T14:14:07.590Z,7.96
2022-11-21T14:16:43.718Z,7.87
2022-11-21T14:19:18.055Z,7.72
2022-11-21T14:21:46.923Z,7.74
2022-11-21T14:24:19.375Z,7.60
2022-11-21T14:26:49.376Z,7.60
2022-11-21T14:29:27.566Z,7.42
2022-11-21T14:31:55.852Z,7.40
2022-11-21T14:34:31.651Z,7.27
2022-11-21T14:37:05.043Z,7.25
2022-11-21T14:39:39.935Z,7.01
2022-11-21T14:42:16.475Z,6.90
2022-11-21T14:44:44.040Z,6.76
2022-11-21T14:47:26.368Z,6.65
2022-11-21T14:50:01.048Z,6.40
2022-11-21T14:52:33.255Z,6.51
2022-11-21T14:57:50.033Z,6.21
2022-11-21T15:00:51.466Z,6.15
2022-11-21T15:03:23.715Z,6.07
2022-11-21T15:06:04.463Z,5.98
2022-11-21T15:11:23.938Z,5.74
2022-11-21T15:16:42.747Z,5.25
2022-11-21T15:19:10.846Z,5.28
2022-11-21T15:21:43.423Z,5.20
2022-11-21T15:24:32.339Z,5.12
2022-11-21T15:27:00.904Z,5.07
2022-11-21T15:29:30.359Z,5.10
2022-11-21T15:32:16.547Z,5.02
2022-11-21T15:34:44.301Z,4.90
2022-11-21T15:37:18.648Z,4.72
2022-11-21T15:39:48.297Z,4.71
2022-11-21T15:42:29.121Z,4.59
2022-11-21T15:45:04.510Z,4.60
2022-11-21T15:47:31.835Z,4.49
2022-11-21T15:49:59.198Z,4.44
2022-11-21T15:52:26.517Z,4.34
2022-11-21T15:54:53.893Z,4.34
2022-11-21T15:57:22.187Z,4.27
2022-11-21T15:59:49.934Z,4.21
2022-11-21T16:02:17.311Z,4.09
2022-11-21T16:04:45.517Z,4.06
2022-11-21T16:07:12.954Z,4.08
2022-11-21T16:09:42.029Z,4.03
2022-11-21T16:12:10.014Z,4.06
2022-11-21T16:14:37.363Z,3.92
2022-11-21T16:17:04.639Z,3.70
2022-11-21T16:19:32.187Z,3.70
2022-11-21T16:21:59.651Z,3.61
2022-11-21T16:24:26.948Z,3.61
2022-11-21T16:26:55.428Z,3.58
2022-11-21T16:29:22.876Z,3.51
2022-11-21T16:31:55.820Z,3.45
2022-11-21T16:34:23.122Z,3.44
2022-11-21T16:36:50.700Z,3.65
2022-11-21T16:39:29.646Z,3.60
2022-11-21T16:41:56.984Z,3.52
2022-11-21T16:44:24.340Z,3.53
2022-11-21T16:46:54.251Z,3.76
2022-11-21T16:49:21.795Z,3.88
2022-11-21T16:51:49.104Z,4.07
2022-11-21T16:54:16.439Z,4.11
2022-11-21T16:56:43.983Z,4.21
2022-11-21T16:59:11.369Z,4.18
2022-11-21T17:01:38.842Z,4.18
2022-11-21T17:04:06.341Z,4.04
2022-11-21T17:06:33.904Z,4.07
2022-11-21T17:09:04.611Z,4.16
2022-11-21T17:11:32.317Z,4.17
2022-11-21T17:14:01.340Z,4.06
2022-11-21T17:16:29.525Z,4.11
2022-11-21T17:18:58.616Z,4.13
2022-11-21T17:21:26.985Z,4.00
2022-11-21T17:23:54.384Z,4.06
2022-11-21T17:26:24.063Z,4.18
2022-11-21T17:28:59.681Z,4.43
2022-11-21T17:31:27.521Z,4.45
2022-11-21T17:33:57.136Z,4.53
2022-11-21T17:36:27.308Z,4.52
2022-11-21T17:38:54.812Z,4.56
2022-11-21T17:41:23.742Z,4.62
2022-11-21T17:43:55.931Z,4.58
2022-11-21T17:46:25.253Z,4.51
2022-11-21T17:48:57.166Z,4.74
2022-11-21T17:51:32.278Z,4.64
2022-11-21T17:54:00.732Z,4.61
2022-11-21T17:56:32.727Z,4.54
2022-11-21T17:59:00.033Z,4.56
2022-11-21T18:01:27.767Z,4.52
2022-11-21T18:04:00.383Z,4.47
2022-11-21T18:06:33.154Z,4.51
2022-11-21T18:09:00.115Z,4.57
2022-11-21T18:11:39.168Z,4.57
2022-11-21T18:14:08.644Z,4.54
2022-11-21T18:16:36.069Z,4.45
2022-11-21T18:19:03.178Z,4.46
2022-11-21T18:21:32.538Z,4.41
2022-11-21T18:24:00.249Z,4.59
2022-11-21T18:26:30.781Z,4.64
2022-11-21T18:31:50.247Z,4.52
2022-11-21T18:34:17.194Z,4.48
2022-11-21T18:36:44.264Z,4.65
2022-11-21T18:39:15.295Z,4.71
2022-11-21T18:41:43.170Z,4.83
2022-11-21T18:44:11.998Z,4.41
2022-11-21T18:46:40.582Z,4.22
2022-11-21T18:49:08.461Z,4.25
2022-11-21T18:51:36.843Z,4.34
2022-11-21T18:54:08.048Z,4.57
2022-11-21T18:56:37.436Z,4.65
2022-11-21T18:59:08.236Z,4.66
2022-11-21T19:01:37.585Z,4.68
2022-11-21T19:04:05.316Z,4.59
2022-11-21T19:06:32.665Z,4.37
2022-11-21T19:08:59.900Z,4.57
2022-11-21T19:11:29.320Z,4.75
2022-11-21T19:13:57.904Z,4.76
2022-11-21T19:16:27.435Z,4.68
2022-11-21T19:21:42.811Z,4.66
2022-11-21T19:24:14.452Z,4.54
2022-11-21T19:26:42.140Z,4.49
2022-11-21T19:29:10.507Z,4.55
2022-11-21T19:31:44.100Z,4.49
2022-11-21T19:34:14.420Z,4.62
2022-11-21T19:36:42.233Z,4.80
2022-11-21T19:39:09.983Z,4.96
2022-11-21T19:41:37.220Z,5.02
2022-11-21T19:44:04.388Z,4.96
2022-11-21T19:46:38.111Z,4.93
2022-11-21T19:49:07.217Z,4.96
2022-11-21T19:51:40.524Z,4.78
2022-11-21T19:54:09.576Z,4.85
2022-11-21T19:56:37.126Z,4.93
2022-11-21T19:59:04.545Z,4.92
2022-11-21T20:01:34.308Z,4.88
2022-11-21T20:04:03.948Z,4.77
2022-11-21T20:06:42.237Z,4.72
2022-11-21T20:09:12.722Z,4.86
2022-11-21T20:11:42.202Z,4.74
2022-11-21T20:14:09.199Z,4.70
2022-11-21T20:16:40.035Z,4.75
2022-11-21T20:19:10.695Z,5.12
2022-11-21T20:21:38.713Z,5.37
2022-11-21T20:24:06.483Z,5.32
2022-11-21T20:26:34.244Z,5.39
2022-11-21T20:29:01.580Z,5.26
2022-11-21T20:31:35.177Z,5.35
2022-11-21T20:34:08.574Z,5.40
2022-11-21T20:36:36.769Z,5.37
2022-11-21T20:39:15.575Z,5.32
2022-11-21T20:41:42.720Z,5.31
2022-11-21T20:47:07.253Z,5.70
2022-11-21T20:49:35.250Z,5.73
2022-11-21T20:53:43.948Z,5.64
2022-11-21T20:54:49.518Z,5.78
2022-11-21T20:57:16.484Z,5.78
2022-11-21T20:59:43.892Z,5.87
2022-11-21T21:02:12.321Z,5.94
2022-11-21T21:04:39.719Z,5.78
2022-11-21T21:07:06.717Z,5.64
2022-11-21T21:09:33.696Z,5.95
2022-11-21T21:12:00.597Z,5.93
2022-11-21T21:14:27.531Z,6.05
2022-11-21T21:16:54.509Z,5.98
2022-11-21T21:19:21.882Z,5.96
2022-11-21T21:21:48.942Z,5.90
2022-11-21T21:24:16.285Z,5.84
2022-11-21T21:26:46.511Z,5.78
2022-11-21T21:29:20.724Z,5.81
2022-11-21T21:31:51.710Z,5.94
2022-11-21T21:34:21.348Z,5.73
2022-11-21T21:36:48.867Z,5.63
2022-11-21T21:39:15.963Z,5.76
2022-11-21T21:41:46.046Z,5.65
2022-11-21T21:44:13.942Z,5.70
2022-11-21T21:46:40.960Z,5.63
2022-11-21T21:49:08.006Z,5.75
2022-11-21T21:51:37.102Z,5.69
2022-11-21T21:54:04.664Z,5.74
2022-11-21T21:56:31.860Z,5.79
2022-11-21T21:58:59.756Z,5.98
2022-11-21T22:01:32.059Z,5.72
2022-11-21T22:04:03.023Z,5.65
2022-11-21T22:06:33.042Z,5.69
2022-11-21T22:09:00.270Z,5.56
2022-11-21T22:11:31.399Z,5.39
2022-11-21T22:14:01.913Z,5.69
2022-11-21T22:16:29.783Z,5.64
2022-11-21T22:18:57.439Z,5.57
2022-11-21T22:21:34.302Z,5.54
2022-11-21T22:26:51.903Z,5.64
2022-11-21T22:29:18.935Z,5.64
2022-11-21T22:31:45.906Z,5.46
2022-11-21T22:34:16.062Z,5.50
2022-11-21T22:36:43.409Z,5.41
2022-11-21T22:39:10.472Z,5.51
2022-11-21T22:41:37.439Z,5.47
2022-11-21T22:44:04.654Z,5.44
2022-11-21T22:46:32.149Z,5.55
2022-11-21T22:48:59.387Z,5.55
2022-11-21T22:51:29.517Z,5.55
2022-11-21T22:53:57.218Z,5.68
2022-11-21T22:56:24.954Z,5.67
2022-11-21T22:58:52.675Z,5.76
2022-11-21T23:01:22.499Z,5.67
2022-11-21T23:03:49.951Z,5.48
2022-11-21T23:06:21.320Z,5.43
2022-11-21T23:08:48.968Z,5.31
2022-11-21T23:11:26.033Z,5.26
2022-11-21T23:13:54.290Z,5.39
2022-11-21T23:16:21.824Z,5.43
2022-11-21T23:18:52.270Z,5.27
2022-11-21T23:21:19.262Z,5.17
2022-11-21T23:23:46.297Z,5.11
2022-11-21T23:26:13.307Z,5.06
2022-11-21T23:28:40.276Z,4.97
2022-11-21T23:31:07.220Z,5.04
2022-11-21T23:33:34.142Z,5.20
2022-11-21T23:36:01.175Z,5.41
2022-11-21T23:38:28.193Z,5.06
2022-11-21T23:40:55.284Z,5.11
2022-11-21T23:43:22.238Z,4.99
2022-11-21T23:45:53.610Z,4.89
2022-11-21T23:48:21.897Z,4.77
2022-11-21T23:50:51.298Z,4.74
2022-11-21T23:53:19.533Z,4.69
2022-11-21T23:55:47.371Z,4.59
2022-11-21T23:58:14.593Z,4.52
